createdAt,value
2022-10-07T00:02:12.603Z,4.55
2022-10-07T00:04:46.018Z,5.18
2022-10-07T00:07:16.530Z,4.60
2022-10-07T00:09:46.221Z,5.50
2022-10-07T00:12:19.057Z,4.97
2022-10-07T00:14:48.750Z,4.35
2022-10-07T00:17:18.454Z,4.38
2022-10-07T00:19:48.149Z,5.07
2022-10-07T00:22:17.953Z,4.60
2022-10-07T00:24:47.871Z,4.65
2022-10-07T00:27:20.183Z,5.40
2022-10-07T00:29:50.027Z,5.40
2022-10-07T00:32:19.755Z,5.63
2022-10-07T00:34:49.542Z,5.18
2022-10-07T00:37:19.266Z,4.68
2022-10-07T00:39:49.040Z,5.18
2022-10-07T00:42:21.365Z,4.63
2022-10-07T00:44:51.180Z,5.28
2022-10-07T00:47:27.480Z,4.90
2022-10-07T00:50:00.854Z,4.85
2022-10-07T00:52:33.891Z,4.85
2022-10-07T00:55:06.711Z,5.25
2022-10-07T00:57:41.875Z,5.63
2022-10-07T01:00:13.379Z,5.65
2022-10-07T01:02:43.477Z,5.28
2022-10-07T01:05:17.784Z,5.47
2022-10-07T01:07:48.645Z,5.82
2022-10-07T01:10:20.285Z,5.13
2022-10-07T01:13:05.535Z,5.10
2022-10-07T01:15:40.301Z,5.60
2022-10-07T01:18:17.903Z,6.00
2022-10-07T01:20:53.025Z,5.45
2022-10-07T01:23:44.302Z,5.93
2022-10-07T01:26:48.909Z,5.88
2022-10-07T01:29:23.615Z,5.70
2022-10-07T01:31:59.156Z,5.35
2022-10-07T01:34:29.849Z,5.65
2022-10-07T01:37:02.201Z,5.50
2022-10-07T01:39:37.587Z,6.20
2022-10-07T01:42:10.259Z,5.80
2022-10-07T01:44:41.649Z,5.60
2022-10-07T01:47:11.379Z,5.72
2022-10-07T01:49:41.127Z,5.68
2022-10-07T01:52:24.067Z,5.78
2022-10-07T01:55:09.933Z,5.30
2022-10-07T01:57:49.616Z,4.93
2022-10-07T02:00:20.265Z,5.18
2022-10-07T02:03:04.975Z,5.13
2022-10-07T02:08:24.017Z,5.15
2022-10-07T02:11:07.965Z,5.55
2022-10-07T02:13:44.742Z,5.10
2022-10-07T02:16:22.234Z,5.43
2022-10-07T02:18:54.420Z,5.07
2022-10-07T02:21:28.117Z,5.55
2022-10-07T02:23:58.930Z,4.93
2022-10-07T02:26:31.569Z,5.10
2022-10-07T02:29:07.621Z,4.88
2022-10-07T02:31:40.224Z,5.30
2022-10-07T02:34:16.247Z,5.60
2022-10-07T02:36:54.714Z,5.00
2022-10-07T02:39:24.511Z,5.82
2022-10-07T02:42:03.637Z,5.30
2022-10-07T02:44:41.110Z,5.20
2022-10-07T02:47:16.563Z,4.72
2022-10-07T02:49:53.244Z,4.80
2022-10-07T02:52:24.981Z,5.03
2022-10-07T02:54:59.593Z,5.00
2022-10-07T02:57:33.147Z,4.80
2022-10-07T03:00:10.961Z,5.57
2022-10-07T03:02:45.162Z,5.78
2022-10-07T03:05:19.214Z,5.65
2022-10-07T03:07:49.469Z,5.53
2022-10-07T03:10:19.797Z,6.18
2022-10-07T03:12:50.247Z,6.13
2022-10-07T03:15:22.917Z,5.70
2022-10-07T03:17:52.904Z,5.50
2022-10-07T03:20:22.611Z,5.72
2022-10-07T03:22:52.451Z,5.88
2022-10-07T03:25:22.188Z,5.63
2022-10-07T03:27:53.087Z,5.55
2022-10-07T03:30:25.419Z,5.03
2022-10-07T03:32:55.175Z,5.80
2022-10-07T03:35:25.010Z,5.93
2022-10-07T03:37:54.733Z,5.43
2022-10-07T03:40:24.470Z,5.22
2022-10-07T03:42:54.183Z,5.40
2022-10-07T03:45:26.961Z,4.90
2022-10-07T03:47:56.678Z,5.43
2022-10-07T03:50:26.441Z,5.47
2022-10-07T03:52:56.303Z,5.03
2022-10-07T03:55:26.082Z,5.40
2022-10-07T03:57:59.712Z,4.93
2022-10-07T04:00:32.317Z,5.25
2022-10-07T04:03:02.060Z,5.25
2022-10-07T04:05:31.917Z,4.70
2022-10-07T04:08:01.623Z,4.80
2022-10-07T04:10:31.487Z,4.57
2022-10-07T04:13:01.259Z,5.22
2022-10-07T04:15:34.488Z,5.60
2022-10-07T04:18:04.203Z,5.30
2022-10-07T04:20:33.929Z,5.53
2022-10-07T04:23:03.666Z,4.93
2022-10-07T04:25:37.597Z,4.82
2022-10-07T04:28:09.364Z,4.97
2022-10-07T04:30:44.192Z,5.50
2022-10-07T04:33:14.919Z,5.53
2022-10-07T04:35:44.879Z,5.43
2022-10-07T04:38:15.995Z,4.68
2022-10-07T04:40:48.089Z,5.03
2022-10-07T04:43:23.461Z,5.20
2022-10-07T04:45:57.673Z,5.07
2022-10-07T04:48:27.477Z,5.18
2022-10-07T04:50:57.885Z,5.53
2022-10-07T04:53:27.744Z,5.50
2022-10-07T04:55:57.495Z,5.15
2022-10-07T04:58:27.489Z,5.15
2022-10-07T05:01:01.898Z,5.18
2022-10-07T05:03:32.291Z,4.95
2022-10-07T05:06:06.219Z,5.10
2022-10-07T05:08:36.209Z,5.40
2022-10-07T05:11:06.555Z,5.85
2022-10-07T05:13:36.303Z,5.65
2022-10-07T05:16:09.761Z,5.28
2022-10-07T05:18:39.607Z,5.70
2022-10-07T05:21:10.794Z,5.55
2022-10-07T05:23:40.501Z,5.03
2022-10-07T05:26:11.154Z,5.65
2022-10-07T05:28:43.206Z,5.60
2022-10-07T05:31:17.172Z,5.38
2022-10-07T05:33:49.480Z,5.78
2022-10-07T05:36:19.990Z,5.88
2022-10-07T05:38:49.898Z,5.45
2022-10-07T05:41:21.705Z,5.05
2022-10-07T05:43:51.483Z,6.00
2022-10-07T05:46:24.586Z,5.70
2022-10-07T05:48:56.131Z,5.68
2022-10-07T05:51:27.889Z,5.75
2022-10-07T05:53:58.403Z,5.88
2022-10-07T05:56:28.217Z,5.90
2022-10-07T05:58:58.678Z,6.53
2022-10-07T06:01:31.245Z,6.60
2022-10-07T06:04:01.278Z,6.25
2022-10-07T06:06:31.382Z,6.70
2022-10-07T06:09:21.370Z,6.72
2022-10-07T06:12:03.638Z,6.60
2022-10-07T06:14:33.608Z,6.40
2022-10-07T06:17:05.952Z,6.45
2022-10-07T06:19:35.711Z,5.90
2022-10-07T06:22:05.488Z,6.03
2022-10-07T06:24:35.965Z,6.53
2022-10-07T06:27:05.715Z,6.60
2022-10-07T06:29:35.423Z,5.30
2022-10-07T06:32:07.862Z,5.82
2022-10-07T06:34:37.585Z,5.45
2022-10-07T06:37:07.843Z,5.57
2022-10-07T06:39:37.550Z,5.88
2022-10-07T06:42:07.848Z,5.53
2022-10-07T06:44:37.558Z,5.57
2022-10-07T06:47:11.927Z,5.70
2022-10-07T06:49:41.930Z,6.00
2022-10-07T06:52:12.310Z,5.40
2022-10-07T06:54:42.067Z,6.30
2022-10-07T06:57:40.246Z,5.38
2022-10-07T07:00:01.846Z,5.72
2022-10-07T07:02:35.509Z,6.15
2022-10-07T07:05:08.467Z,6.10
2022-10-07T07:07:38.305Z,6.13
2022-10-07T07:10:09.658Z,6.13
2022-10-07T07:12:39.604Z,5.88
2022-10-07T07:15:10.653Z,6.15
2022-10-07T07:17:43.424Z,6.68
2022-10-07T07:20:17.074Z,6.00
2022-10-07T07:22:46.847Z,6.50
2022-10-07T07:25:16.744Z,5.90
2022-10-07T07:27:48.825Z,6.28
2022-10-07T07:30:23.585Z,6.53
2022-10-07T07:32:56.505Z,6.43
2022-10-07T07:35:27.879Z,6.00
2022-10-07T07:37:57.741Z,5.80
2022-10-07T07:40:27.586Z,5.82
2022-10-07T07:42:57.760Z,5.70
2022-10-07T07:45:27.551Z,5.55
2022-10-07T07:47:59.852Z,5.88
2022-10-07T07:50:29.629Z,5.50
2022-10-07T07:53:00.218Z,6.05
2022-10-07T07:55:29.985Z,5.80
2022-10-07T07:58:00.610Z,5.18
2022-10-07T08:00:30.446Z,5.70
2022-10-07T08:03:02.737Z,5.78
2022-10-07T08:05:34.225Z,5.57
2022-10-07T08:08:04.043Z,5.55
2022-10-07T08:10:33.829Z,5.60
2022-10-07T08:13:03.561Z,5.50
2022-10-07T08:15:33.314Z,5.82
2022-10-07T08:18:07.935Z,5.82
2022-10-07T08:20:38.958Z,5.63
2022-10-07T08:23:09.331Z,5.70
2022-10-07T08:25:39.197Z,5.90
2022-10-07T08:28:08.988Z,6.93
2022-10-07T08:30:39.246Z,6.38
2022-10-07T08:33:11.613Z,5.85
2022-10-07T08:35:41.360Z,5.97
2022-10-07T08:38:14.523Z,5.57
2022-10-07T08:40:49.771Z,5.90
2022-10-07T08:43:21.258Z,5.63
2022-10-07T08:45:51.726Z,5.88
2022-10-07T08:48:31.666Z,6.20
2022-10-07T08:51:07.755Z,5.38
2022-10-07T08:53:40.209Z,5.50
2022-10-07T08:56:15.927Z,5.38
2022-10-07T08:59:02.110Z,5.72
2022-10-07T09:01:47.970Z,5.40
2022-10-07T09:04:33.119Z,5.43
2022-10-07T09:07:07.843Z,5.72
2022-10-07T09:09:42.237Z,4.85
2022-10-07T09:12:22.878Z,5.13
2022-10-07T09:14:57.441Z,5.20
2022-10-07T09:17:34.999Z,4.80
2022-10-07T09:20:16.482Z,5.45
2022-10-07T09:22:49.463Z,5.20
2022-10-07T09:25:23.536Z,5.43
2022-10-07T09:27:54.491Z,4.80
2022-10-07T09:30:24.970Z,4.65
2022-10-07T09:32:56.706Z,4.20
2022-10-07T09:35:32.597Z,4.65
2022-10-07T09:38:04.408Z,4.60
2022-10-07T09:41:01.664Z,4.40
2022-10-07T09:43:33.889Z,4.53
2022-10-07T09:46:04.645Z,4.45
2022-10-07T09:48:37.360Z,4.57
2022-10-07T09:51:25.468Z,4.70
2022-10-07T09:54:02.826Z,5.10
2022-10-07T09:56:41.420Z,4.55
2022-10-07T09:59:32.997Z,4.88
2022-10-07T10:02:05.497Z,4.25
2022-10-07T10:04:38.351Z,4.47
2022-10-07T10:07:21.752Z,4.03
2022-10-07T10:09:54.516Z,3.95
2022-10-07T10:12:26.234Z,4.22
2022-10-07T10:14:57.669Z,4.07
2022-10-07T10:17:31.821Z,3.70
2022-10-07T10:20:33.620Z,3.58
2022-10-07T10:23:28.045Z,4.13
2022-10-07T10:26:23.452Z,4.82
2022-10-07T10:28:59.751Z,5.05
2022-10-07T10:31:37.819Z,4.35
2022-10-07T10:34:23.340Z,4.10
2022-10-07T10:37:03.391Z,4.05
2022-10-07T10:39:48.116Z,3.80
2022-10-07T10:42:22.810Z,3.90
2022-10-07T10:45:07.970Z,4.20
2022-10-07T10:47:51.543Z,4.35
2022-10-07T10:50:32.464Z,4.07
2022-10-07T10:53:15.121Z,3.67
2022-10-07T10:56:02.048Z,4.15
2022-10-07T10:58:42.908Z,4.00
2022-10-07T11:01:24.033Z,3.65
2022-10-07T11:04:18.623Z,4.03
2022-10-07T11:06:52.426Z,3.67
2022-10-07T11:09:30.747Z,3.85
2022-10-07T11:12:07.013Z,4.32
2022-10-07T11:14:54.611Z,4.40
2022-10-07T11:17:32.924Z,4.30
2022-10-07T11:20:16.121Z,4.13
2022-10-07T11:22:53.504Z,4.72
2022-10-07T11:25:35.747Z,4.22
2022-10-07T11:28:17.562Z,4.25
2022-10-07T11:30:54.965Z,4.28
2022-10-07T11:33:32.111Z,4.45
2022-10-07T11:36:10.723Z,4.50
2022-10-07T11:38:41.972Z,5.05
2022-10-07T11:41:16.666Z,5.63
2022-10-07T11:43:56.210Z,5.70
2022-10-07T11:46:30.178Z,4.95
2022-10-07T11:49:05.725Z,4.72
2022-10-07T11:51:41.044Z,5.32
2022-10-07T11:54:17.274Z,5.45
2022-10-07T11:56:50.971Z,4.95
2022-10-07T11:59:45.968Z,4.90
2022-10-07T12:02:41.567Z,5.22
2022-10-07T12:05:46.648Z,5.28
2022-10-07T12:08:36.883Z,5.20
2022-10-07T12:11:46.042Z,4.45
2022-10-07T12:14:33.383Z,4.50
2022-10-07T12:17:20.661Z,4.30
2022-10-07T12:20:10.518Z,4.90
2022-10-07T12:22:40.569Z,5.30
2022-10-07T12:25:34.722Z,4.68
2022-10-07T12:28:04.697Z,4.70
2022-10-07T12:30:44.175Z,5.75
2022-10-07T12:33:31.761Z,5.25
2022-10-07T12:36:02.395Z,4.82
2022-10-07T12:38:32.737Z,5.13
2022-10-07T12:41:26.173Z,5.05
2022-10-07T12:44:06.314Z,5.03
2022-10-07T12:46:46.106Z,4.80
2022-10-07T12:49:23.803Z,5.63
2022-10-07T12:51:57.727Z,5.70
2022-10-07T12:54:34.198Z,5.97
2022-10-07T12:57:13.730Z,5.18
2022-10-07T12:59:55.482Z,4.78
2022-10-07T13:02:57.752Z,5.00
2022-10-07T13:06:00.781Z,5.43
2022-10-07T13:09:03.049Z,4.47
2022-10-07T13:12:02.930Z,5.00
2022-10-07T13:14:42.131Z,4.95
2022-10-07T13:17:25.579Z,5.30
2022-10-07T13:20:04.250Z,5.55
2022-10-07T13:22:34.140Z,5.45
2022-10-07T13:25:06.379Z,5.50
2022-10-07T13:27:38.681Z,5.50
2022-10-07T13:30:36.315Z,5.00
2022-10-07T13:33:26.509Z,5.88
2022-10-07T13:36:10.204Z,5.38
2022-10-07T13:38:39.953Z,5.17
2022-10-07T13:41:17.465Z,5.35
2022-10-07T13:43:47.641Z,4.45
2022-10-07T13:46:20.132Z,5.35
2022-10-07T13:48:50.061Z,5.30
2022-10-07T13:51:28.378Z,5.25
2022-10-07T13:54:00.765Z,5.03
2022-10-07T13:56:35.970Z,5.50
2022-10-07T13:59:07.134Z,5.00
2022-10-07T14:01:42.629Z,5.13
2022-10-07T14:04:28.612Z,4.75
2022-10-07T14:07:01.543Z,5.05
2022-10-07T14:09:45.086Z,5.90
2022-10-07T14:12:18.438Z,6.18
2022-10-07T14:14:50.353Z,5.73
2022-10-07T14:17:28.331Z,5.43
2022-10-07T14:20:01.617Z,5.18
2022-10-07T14:22:34.539Z,5.32
2022-10-07T14:25:06.696Z,5.07
2022-10-07T14:27:55.516Z,5.05
2022-10-07T14:30:55.788Z,5.32
2022-10-07T14:33:45.332Z,5.47
2022-10-07T14:36:17.810Z,5.68
2022-10-07T14:38:49.089Z,5.50
2022-10-07T14:41:20.795Z,5.10
2022-10-07T14:43:52.563Z,5.00
2022-10-07T14:46:24.097Z,5.72
2022-10-07T14:48:57.070Z,5.00
2022-10-07T14:51:29.594Z,5.28
2022-10-07T14:54:05.184Z,5.20
2022-10-07T14:56:36.795Z,4.85
2022-10-07T14:59:06.687Z,5.97
2022-10-07T15:01:36.399Z,5.30
2022-10-07T15:04:11.261Z,5.45
2022-10-07T15:06:41.396Z,5.60
2022-10-07T15:09:14.500Z,5.50
2022-10-07T15:11:44.730Z,5.07
2022-10-07T15:14:14.649Z,4.85
2022-10-07T15:16:44.435Z,4.90
2022-10-07T15:19:17.088Z,5.20
2022-10-07T15:21:46.879Z,4.93
2022-10-07T15:24:17.028Z,5.55
2022-10-07T15:26:46.907Z,5.00
2022-10-07T15:29:17.863Z,5.35
2022-10-07T15:31:47.627Z,5.65
2022-10-07T15:34:22.589Z,5.68
2022-10-07T15:36:52.493Z,5.75
2022-10-07T15:39:22.201Z,5.93
2022-10-07T15:41:51.960Z,5.70
2022-10-07T15:44:23.461Z,5.50
2022-10-07T15:46:57.505Z,5.80
2022-10-07T15:49:30.226Z,5.85
2022-10-07T15:52:01.384Z,6.07
2022-10-07T15:54:31.961Z,6.00
2022-10-07T15:57:01.796Z,5.82
2022-10-07T15:59:31.576Z,5.60
2022-10-07T16:02:01.738Z,5.65
2022-10-07T16:04:34.520Z,5.85
2022-10-07T16:07:04.503Z,6.18
2022-10-07T16:09:34.315Z,6.60
2022-10-07T16:12:04.029Z,6.43
2022-10-07T16:14:34.081Z,5.82
2022-10-07T16:17:04.186Z,5.70
2022-10-07T16:19:36.602Z,5.78
2022-10-07T16:22:06.352Z,6.35
2022-10-07T16:24:36.114Z,6.30
2022-10-07T16:27:06.694Z,6.88
2022-10-07T16:29:49.015Z,5.85
2022-10-07T16:32:18.732Z,5.85
2022-10-07T16:34:51.314Z,6.78
2022-10-07T16:37:21.075Z,6.40
2022-10-07T16:39:50.780Z,6.30
2022-10-07T16:42:20.540Z,6.32
2022-10-07T16:44:51.372Z,7.20
2022-10-07T16:47:21.313Z,6.00
2022-10-07T16:49:53.826Z,6.32
2022-10-07T16:52:25.468Z,6.38
2022-10-07T16:54:55.198Z,6.70
2022-10-07T16:57:24.912Z,6.50
2022-10-07T16:59:55.510Z,6.65
2022-10-07T17:02:25.281Z,6.82
2022-10-07T17:04:57.551Z,7.13
2022-10-07T17:07:27.275Z,7.53
2022-10-07T17:09:56.999Z,7.45
2022-10-07T17:12:27.017Z,7.78
2022-10-07T17:14:56.810Z,8.20
2022-10-07T17:17:26.600Z,8.05
2022-10-07T17:19:58.885Z,8.10
2022-10-07T17:22:28.690Z,7.80
2022-10-07T17:24:59.749Z,8.43
2022-10-07T17:27:29.477Z,7.88
2022-10-07T17:29:59.168Z,7.47
2022-10-07T17:32:29.372Z,9.05
2022-10-07T17:35:01.709Z,8.32
2022-10-07T17:37:31.547Z,9.80
2022-10-07T17:40:01.236Z,9.00
2022-10-07T17:42:30.999Z,8.52
2022-10-07T17:45:00.773Z,8.30
2022-10-07T17:47:30.608Z,9.07
2022-10-07T17:50:03.362Z,8.52
2022-10-07T17:52:35.602Z,8.98
2022-10-07T17:55:06.113Z,8.27
2022-10-07T17:57:35.885Z,9.27
2022-10-07T18:00:06.723Z,9.40
2022-10-07T18:02:37.060Z,8.65
2022-10-07T18:05:10.382Z,8.73
2022-10-07T18:07:40.512Z,8.55
2022-10-07T18:10:11.127Z,8.32
2022-10-07T18:12:53.465Z,8.98
2022-10-07T18:15:23.281Z,10.73
2022-10-07T18:17:54.522Z,8.80
2022-10-07T18:20:28.506Z,8.40
2022-10-07T18:22:58.733Z,9.20
2022-10-07T18:25:28.567Z,8.70
2022-10-07T18:27:58.453Z,8.82
2022-10-07T18:30:28.235Z,9.63
2022-10-07T18:32:57.971Z,9.18
2022-10-07T18:35:30.275Z,10.45
2022-10-07T18:38:00.608Z,8.77
2022-10-07T18:40:30.310Z,8.90
2022-10-07T18:43:00.039Z,8.88
2022-10-07T18:45:29.859Z,11.13
2022-10-07T18:47:59.729Z,8.35
2022-10-07T18:50:33.668Z,8.60
2022-10-07T18:53:03.588Z,8.75
2022-10-07T18:55:33.280Z,9.48
2022-10-07T18:58:03.035Z,9.68
2022-10-07T19:00:32.799Z,8.93
2022-10-07T19:03:02.593Z,10.18
2022-10-07T19:05:38.773Z,9.77
2022-10-07T19:08:08.694Z,9.88
2022-10-07T19:10:42.119Z,9.57
2022-10-07T19:13:26.732Z,9.20
2022-10-07T19:15:56.541Z,8.88
2022-10-07T19:18:27.585Z,8.85
2022-10-07T19:21:01.142Z,8.05
2022-10-07T19:23:31.612Z,8.70
2022-10-07T19:26:02.045Z,9.10
2022-10-07T19:28:31.849Z,10.90
2022-10-07T19:31:01.584Z,11.05
2022-10-07T19:33:31.294Z,11.35
2022-10-07T19:36:04.134Z,10.75
2022-10-07T19:38:33.870Z,9.60
2022-10-07T19:41:03.559Z,10.38
2022-10-07T19:43:34.623Z,11.07
2022-10-07T19:46:04.496Z,10.32
2022-10-07T19:48:34.913Z,9.98
2022-10-07T19:51:09.114Z,10.18
2022-10-07T19:53:42.210Z,9.40
2022-10-07T19:56:17.657Z,8.82
2022-10-07T19:58:49.176Z,8.70
2022-10-07T20:01:21.224Z,9.55
2022-10-07T20:03:51.783Z,9.10
2022-10-07T20:06:25.174Z,9.07
2022-10-07T20:08:55.941Z,9.27
2022-10-07T20:11:27.724Z,9.02
2022-10-07T20:13:57.534Z,9.43
2022-10-07T20:16:29.411Z,8.93
2022-10-07T20:19:02.162Z,9.75
2022-10-07T20:21:36.237Z,8.70
2022-10-07T20:24:07.090Z,9.80
2022-10-07T20:26:38.632Z,9.32
2022-10-07T20:29:11.671Z,9.65
2022-10-07T20:31:43.377Z,9.85
2022-10-07T20:34:15.921Z,9.80
2022-10-07T20:36:50.307Z,10.65
2022-10-07T20:42:16.270Z,10.50
2022-10-07T20:44:46.004Z,10.35
2022-10-07T20:47:15.688Z,9.88
2022-10-07T20:49:45.573Z,11.63
2022-10-07T20:52:20.095Z,10.20
2022-10-07T20:54:50.461Z,9.90
2022-10-07T20:57:21.591Z,10.75
2022-10-07T20:59:52.198Z,10.20
2022-10-07T21:02:23.889Z,10.75
2022-10-07T21:04:53.744Z,11.18
2022-10-07T21:07:26.062Z,11.00
2022-10-07T21:09:58.113Z,10.65
2022-10-07T21:12:27.963Z,10.77
2022-10-07T21:15:00.527Z,11.85
2022-10-07T21:17:30.319Z,11.27
2022-10-07T21:20:00.032Z,10.35
2022-10-07T21:22:32.302Z,10.75
2022-10-07T21:25:02.013Z,11.95
2022-10-07T21:27:31.734Z,10.98
2022-10-07T21:30:01.455Z,11.15
2022-10-07T21:32:31.166Z,11.00
2022-10-07T21:35:00.869Z,11.18
2022-10-07T21:37:33.187Z,11.13
2022-10-07T21:40:02.914Z,12.30
2022-10-07T21:42:32.757Z,11.35
2022-10-07T21:45:02.444Z,11.15
2022-10-07T21:47:32.164Z,11.98
2022-10-07T21:50:02.018Z,11.93
2022-10-07T21:52:34.338Z,12.35
2022-10-07T21:55:04.116Z,12.50
2022-10-07T21:57:33.831Z,12.35
2022-10-07T22:00:04.198Z,12.93
2022-10-07T22:02:34.026Z,14.68
2022-10-07T22:05:03.820Z,12.95
2022-10-07T22:07:48.616Z,13.70
2022-10-07T22:10:18.576Z,12.60
2022-10-07T22:12:48.755Z,12.85
2022-10-07T22:15:18.848Z,14.07
2022-10-07T22:17:48.550Z,13.52
2022-10-07T22:20:18.380Z,15.32
2022-10-07T22:22:50.675Z,15.02
2022-10-07T22:25:21.132Z,14.52
2022-10-07T22:27:50.965Z,13.30
2022-10-07T22:30:21.152Z,13.38
2022-10-07T22:32:50.862Z,14.65
2022-10-07T22:35:35.102Z,13.65
2022-10-07T22:38:07.711Z,13.80
2022-10-07T22:40:40.055Z,13.18
2022-10-07T22:43:09.848Z,14.23
2022-10-07T22:45:39.582Z,14.00
2022-10-07T22:48:09.281Z,13.68
2022-10-07T22:50:39.146Z,13.93
2022-10-07T22:53:11.473Z,13.25
2022-10-07T22:55:41.182Z,14.32
2022-10-07T22:58:10.912Z,13.82
2022-10-07T23:00:40.916Z,14.25
2022-10-07T23:03:12.214Z,13.15
2022-10-07T23:05:42.089Z,13.98
2022-10-07T23:08:14.368Z,14.18
2022-10-07T23:10:44.068Z,13.95
2022-10-07T23:13:13.819Z,14.50
2022-10-07T23:15:43.569Z,14.48
2022-10-07T23:18:13.308Z,14.73
2022-10-07T23:20:43.042Z,14.25
2022-10-07T23:23:15.349Z,14.10
2022-10-07T23:25:45.349Z,13.90
2022-10-07T23:28:15.061Z,12.85
2022-10-07T23:30:45.168Z,12.13
2022-10-07T23:33:15.116Z,12.40
2022-10-07T23:35:45.240Z,12.50
2022-10-07T23:38:18.433Z,11.88
2022-10-07T23:40:48.315Z,11.93
2022-10-07T23:43:18.001Z,12.85
2022-10-07T23:45:48.140Z,12.55
2022-10-07T23:48:17.852Z,12.73
2022-10-07T23:50:50.269Z,12.85
2022-10-07T23:53:24.536Z,12.68
2022-10-07T23:55:55.640Z,10.80
2022-10-07T23:58:27.505Z,13.23
